Alaska Railroad Corporation
Mile 43 Hourly Weather Roundup
MILE_43 3/28/2017
CLICK HERE TO SEE GRAPH!!!

        DATE  TIME  Temp   Rel  Wind  Wind  Wind  Wind  WindPeakDi
                      F Humid   Spd   Dir  Gust   Spd  Gust      
                     AVG     %   RMY   RMY   RMY    PT    PT      

   3/28/2017 05:00    19    90     5    92    11     5    10      
   3/28/2017 04:00    19    93     6    88    11     6    10      
   3/28/2017 03:00    18    93     4    51     8     3     8      
   3/28/2017 02:00    18    93     3    23     6     1     4      
   3/28/2017 01:00    18    93     2   199     4     0     4      
   3/27/2017 24:00    18    93     2   173     5     1     4      
   3/27/2017 23:00    19    93     2   175     4     1     3      
   3/27/2017 22:00    19    94     6   330    11     5    11      
   3/27/2017 21:00    19    94     5   345     9     5    10      
   3/27/2017 20:00    19    92     6   349     9     6    10      
   3/27/2017 19:00    19    92     9   358    11     8    11      
   3/27/2017 18:00    19    91     9   353    11     8    11      
   3/27/2017 17:00    20    84     6     3     9     5     8      
   3/27/2017 16:00    22    78     3     1     7     2     6      
   3/27/2017 15:00    24    74     1     4     4     1     4      
   3/27/2017 14:00    20    82     4    12     7     4     7      
   3/27/2017 13:00    19    84     7    13    10     7    10      
   3/27/2017 12:00    18    83     9     8    12     9    11      
   3/27/2017 11:00    18    79     7     4    11     6    11      
   3/27/2017 10:00    18    74     2    16     4     1     4      
   3/27/2017 09:00    16    85     3    15     7     3     7      
   3/27/2017 08:00    15    90    10    14    15    10    16      
   3/27/2017 07:00    15    87     8   354    13     8    13      
   3/27/2017 06:00    14    86     7    19    12     8    11      


CLICK HERE TO SEE GRAPH!!!